sensor_id;sensor_type;location;lat;lon;timestamp;pressure;altitude;pressure_sealevel;temperature;humidity
54876;BME280;40764;48.472;8.166;2023-03-24T00:01:34;97348.59;;;11.88;100.00
54876;BME280;40764;48.472;8.166;2023-03-24T00:07:35;97330.84;;;11.94;100.00
54876;BME280;40764;48.472;8.166;2023-03-24T00:13:38;97332.47;;;11.95;100.00
54876;BME280;40764;48.472;8.166;2023-03-24T00:19:39;97327.47;;;11.88;100.00
54876;BME280;40764;48.472;8.166;2023-03-24T00:25:40;97325.03;;;11.69;100.00
54876;BME280;40764;48.472;8.166;2023-03-24T00:31:40;97317.00;;;11.82;100.00
54876;BME280;40764;48.472;8.166;2023-03-24T00:37:42;97297.19;;;11.67;100.00
54876;BME280;40764;48.472;8.166;2023-03-24T00:43:43;97284.47;;;11.63;100.00
54876;BME280;40764;48.472;8.166;2023-03-24T00:49:44;97278.00;;;11.85;100.00
54876;BME280;40764;48.472;8.166;2023-03-24T00:55:45;97267.06;;;11.76;100.00
54876;BME280;40764;48.472;8.166;2023-03-24T01:01:48;97273.19;;;11.73;100.00
54876;BME280;40764;48.472;8.166;2023-03-24T01:07:49;97276.56;;;11.70;100.00
54876;BME280;40764;48.472;8.166;2023-03-24T01:13:52;97268.22;;;11.66;100.00
54876;BME280;40764;48.472;8.166;2023-03-24T01:19:54;97253.22;;;11.72;100.00
54876;BME280;40764;48.472;8.166;2023-03-24T01:25:55;97257.75;;;11.68;100.00
54876;BME280;40764;48.472;8.166;2023-03-24T01:31:55;97255.16;;;11.55;100.00
54876;BME280;40764;48.472;8.166;2023-03-24T01:37:57;97247.63;;;11.60;100.00
54876;BME280;40764;48.472;8.166;2023-03-24T01:43:58;97244.72;;;11.65;100.00
54876;BME280;40764;48.472;8.166;2023-03-24T01:50:00;97248.72;;;11.68;100.00
54876;BME280;40764;48.472;8.166;2023-03-24T01:56:04;97229.53;;;11.76;100.00
54876;BME280;40764;48.472;8.166;2023-03-24T02:02:06;97221.03;;;11.69;100.00
54876;BME280;40764;48.472;8.166;2023-03-24T02:08:33;97228.91;;;11.88;100.00
54876;BME280;40764;48.472;8.166;2023-03-24T02:14:35;97212.28;;;11.85;100.00
54876;BME280;40764;48.472;8.166;2023-03-24T02:21:11;97197.19;;;11.78;100.00
54876;BME280;40764;48.472;8.166;2023-03-24T02:34:24;97184.09;;;11.93;100.00
54876;BME280;40764;48.472;8.166;2023-03-24T02:40:34;97174.63;;;11.82;100.00
54876;BME280;40764;48.472;8.166;2023-03-24T02:46:43;97178.31;;;11.77;100.00
54876;BME280;40764;48.472;8.166;2023-03-24T02:59:02;97193.72;;;11.99;100.00
54876;BME280;40764;48.472;8.166;2023-03-24T03:05:08;97195.34;;;12.00;100.00
54876;BME280;40764;48.472;8.166;2023-03-24T03:11:14;97203.75;;;11.95;100.00
54876;BME280;40764;48.472;8.166;2023-03-24T03:17:21;97210.16;;;11.99;100.00
54876;BME280;40764;48.472;8.166;2023-03-24T03:23:35;97196.06;;;11.79;100.00
54876;BME280;40764;48.472;8.166;2023-03-24T03:29:39;97183.97;;;11.72;100.00
54876;BME280;40764;48.472;8.166;2023-03-24T03:35:45;97174.94;;;11.89;100.00
54876;BME280;40764;48.472;8.166;2023-03-24T03:41:47;97162.28;;;12.05;100.00
54876;BME280;40764;48.472;8.166;2023-03-24T03:47:48;97165.97;;;12.09;100.00
54876;BME280;40764;48.472;8.166;2023-03-24T03:53:52;97191.34;;;12.27;100.00
54876;BME280;40764;48.472;8.166;2023-03-24T03:59:53;97202.84;;;12.12;100.00
54876;BME280;40764;48.472;8.166;2023-03-24T04:12:40;97202.97;;;12.24;100.00
54876;BME280;40764;48.472;8.166;2023-03-24T04:31:41;97293.50;;;13.45;87.63
54876;BME280;40764;48.472;8.166;2023-03-24T04:37:44;97310.53;;;13.59;89.03
54876;BME280;40764;48.472;8.166;2023-03-24T04:43:44;97322.56;;;13.67;88.90
54876;BME280;40764;48.472;8.166;2023-03-24T04:49:46;97329.78;;;13.51;91.12
54876;BME280;40764;48.472;8.166;2023-03-24T04:56:10;97328.50;;;13.27;94.62
54876;BME280;40764;48.472;8.166;2023-03-24T05:02:17;97305.53;;;13.11;96.56
54876;BME280;40764;48.472;8.166;2023-03-24T05:08:19;97299.09;;;13.07;97.16
54876;BME280;40764;48.472;8.166;2023-03-24T05:14:19;97311.97;;;12.86;100.00
54876;BME280;40764;48.472;8.166;2023-03-24T05:20:20;97316.41;;;12.69;100.00
54876;BME280;40764;48.472;8.166;2023-03-24T05:26:20;97308.63;;;12.42;100.00
54876;BME280;40764;48.472;8.166;2023-03-24T05:32:20;97318.94;;;12.45;100.00
54876;BME280;40764;48.472;8.166;2023-03-24T05:38:21;97321.38;;;12.38;100.00
54876;BME280;40764;48.472;8.166;2023-03-24T05:44:21;97300.94;;;12.27;100.00
54876;BME280;40764;48.472;8.166;2023-03-24T05:50:22;97306.06;;;12.37;100.00
54876;BME280;40764;48.472;8.166;2023-03-24T05:56:25;97316.25;;;12.28;100.00
54876;BME280;40764;48.472;8.166;2023-03-24T06:02:26;97305.28;;;12.28;100.00
54876;BME280;40764;48.472;8.166;2023-03-24T06:08:27;97314.59;;;12.35;100.00
54876;BME280;40764;48.472;8.166;2023-03-24T06:14:33;97315.63;;;12.22;100.00
54876;BME280;40764;48.472;8.166;2023-03-24T06:20:33;97345.91;;;12.26;100.00
54876;BME280;40764;48.472;8.166;2023-03-24T06:26:35;97338.69;;;12.13;100.00
54876;BME280;40764;48.472;8.166;2023-03-24T06:32:35;97338.47;;;12.35;100.00
54876;BME280;40764;48.472;8.166;2023-03-24T06:38:38;97352.66;;;12.46;100.00
54876;BME280;40764;48.472;8.166;2023-03-24T06:44:38;97350.38;;;12.39;100.00
54876;BME280;40764;48.472;8.166;2023-03-24T06:50:38;97358.75;;;12.43;100.00
54876;BME280;40764;48.472;8.166;2023-03-24T06:56:39;97380.53;;;12.39;100.00
54876;BME280;40764;48.472;8.166;2023-03-24T07:02:39;97383.94;;;12.45;100.00
54876;BME280;40764;48.472;8.166;2023-03-24T07:08:41;97393.09;;;12.49;100.00
54876;BME280;40764;48.472;8.166;2023-03-24T07:14:42;97401.00;;;12.41;100.00
54876;BME280;40764;48.472;8.166;2023-03-24T07:20:42;97406.31;;;12.38;100.00
54876;BME280;40764;48.472;8.166;2023-03-24T07:26:42;97416.00;;;12.44;100.00
54876;BME280;40764;48.472;8.166;2023-03-24T07:32:43;97419.53;;;12.53;100.00
54876;BME280;40764;48.472;8.166;2023-03-24T07:38:43;97423.84;;;12.63;100.00
54876;BME280;40764;48.472;8.166;2023-03-24T07:44:43;97394.84;;;12.53;100.00
54876;BME280;40764;48.472;8.166;2023-03-24T07:50:44;97397.63;;;12.45;100.00
54876;BME280;40764;48.472;8.166;2023-03-24T07:56:44;97410.13;;;12.63;100.00
54876;BME280;40764;48.472;8.166;2023-03-24T08:02:47;97392.03;;;12.70;100.00
54876;BME280;40764;48.472;8.166;2023-03-24T08:08:48;97375.91;;;12.69;100.00
54876;BME280;40764;48.472;8.166;2023-03-24T08:14:49;97351.09;;;12.65;100.00
54876;BME280;40764;48.472;8.166;2023-03-24T08:20:53;97366.00;;;12.85;100.00
54876;BME280;40764;48.472;8.166;2023-03-24T08:26:54;97399.50;;;12.99;100.00
54876;BME280;40764;48.472;8.166;2023-03-24T08:33:00;97399.50;;;12.99;100.00
54876;BME280;40764;48.472;8.166;2023-03-24T08:39:00;97404.97;;;13.08;99.40
54876;BME280;40764;48.472;8.166;2023-03-24T08:45:00;97418.44;;;13.30;98.68
54876;BME280;40764;48.472;8.166;2023-03-24T08:51:09;97403.19;;;13.42;96.84
54876;BME280;40764;48.472;8.166;2023-03-24T08:57:09;97386.44;;;13.55;96.50
54876;BME280;40764;48.472;8.166;2023-03-24T09:03:13;97431.28;;;13.68;94.92
54876;BME280;40764;48.472;8.166;2023-03-24T09:09:13;97389.75;;;13.90;93.70
54876;BME280;40764;48.472;8.166;2023-03-24T09:15:13;97412.91;;;14.02;91.97
54876;BME280;40764;48.472;8.166;2023-03-24T09:21:14;97432.00;;;13.77;93.75
54876;BME280;40764;48.472;8.166;2023-03-24T09:27:15;97411.44;;;13.62;94.23
54876;BME280;40764;48.472;8.166;2023-03-24T09:33:16;97433.81;;;13.73;93.10
54876;BME280;40764;48.472;8.166;2023-03-24T09:39:16;97410.28;;;13.84;93.04
54876;BME280;40764;48.472;8.166;2023-03-24T09:45:19;97431.34;;;14.01;91.36
54876;BME280;40764;48.472;8.166;2023-03-24T09:51:25;97436.44;;;13.90;90.83
54876;BME280;40764;48.472;8.166;2023-03-24T09:57:37;97459.88;;;14.09;90.24
54876;BME280;40764;48.472;8.166;2023-03-24T10:03:38;97444.72;;;14.44;88.53
54876;BME280;40764;48.472;8.166;2023-03-24T10:09:40;97438.44;;;14.23;87.92
54876;BME280;40764;48.472;8.166;2023-03-24T10:15:51;97463.03;;;13.99;89.29
54876;BME280;40764;48.472;8.166;2023-03-24T10:28:19;97454.13;;;14.22;88.48
54876;BME280;40764;48.472;8.166;2023-03-24T10:34:21;97444.19;;;14.09;87.39
54876;BME280;40764;48.472;8.166;2023-03-24T10:40:26;97457.81;;;14.06;87.61
54876;BME280;40764;48.472;8.166;2023-03-24T10:46:29;97446.59;;;14.32;85.57
54876;BME280;40764;48.472;8.166;2023-03-24T10:52:39;97452.78;;;14.62;84.44
54876;BME280;40764;48.472;8.166;2023-03-24T10:58:41;97461.03;;;14.41;84.46
54876;BME280;40764;48.472;8.166;2023-03-24T11:11:26;97465.41;;;14.63;82.34
54876;BME280;40764;48.472;8.166;2023-03-24T11:17:28;97488.97;;;14.31;83.39
54876;BME280;40764;48.472;8.166;2023-03-24T11:23:39;97471.25;;;14.40;80.89
54876;BME280;40764;48.472;8.166;2023-03-24T11:29:48;97465.44;;;14.21;80.20
54876;BME280;40764;48.472;8.166;2023-03-24T11:35:50;97476.38;;;14.09;81.19
54876;BME280;40764;48.472;8.166;2023-03-24T11:48:01;97475.06;;;13.64;86.29
54876;BME280;40764;48.472;8.166;2023-03-24T11:54:14;97494.72;;;13.46;87.10
54876;BME280;40764;48.472;8.166;2023-03-24T12:00:39;97485.25;;;13.35;91.41
54876;BME280;40764;48.472;8.166;2023-03-24T12:13:11;97486.22;;;13.89;91.02
54876;BME280;40764;48.472;8.166;2023-03-24T12:19:34;97468.78;;;14.06;90.64
54876;BME280;40764;48.472;8.166;2023-03-24T12:31:53;97453.03;;;13.73;88.63
54876;BME280;40764;48.472;8.166;2023-03-24T12:57:23;97453.59;;;13.58;88.32
54876;BME280;40764;48.472;8.166;2023-03-24T13:03:45;97444.88;;;13.35;89.14
54876;BME280;40764;48.472;8.166;2023-03-24T13:10:11;97448.00;;;13.16;90.79
54876;BME280;40764;48.472;8.166;2023-03-24T13:16:16;97442.53;;;13.16;92.07
54876;BME280;40764;48.472;8.166;2023-03-24T13:22:19;97429.03;;;13.41;90.09
54876;BME280;40764;48.472;8.166;2023-03-24T13:28:28;97441.81;;;13.37;89.74
54876;BME280;40764;48.472;8.166;2023-03-24T13:34:33;97438.88;;;13.42;90.29
54876;BME280;40764;48.472;8.166;2023-03-24T13:40:38;97440.19;;;13.36;93.50
54876;BME280;40764;48.472;8.166;2023-03-24T13:46:39;97446.16;;;13.38;93.17
54876;BME280;40764;48.472;8.166;2023-03-24T13:52:44;97454.25;;;13.34;94.62
54876;BME280;40764;48.472;8.166;2023-03-24T14:05:29;97444.06;;;12.96;97.23
54876;BME280;40764;48.472;8.166;2023-03-24T14:17:30;97451.66;;;12.91;96.29
54876;BME280;40764;48.472;8.166;2023-03-24T14:23:42;97447.69;;;12.71;97.72
54876;BME280;40764;48.472;8.166;2023-03-24T14:29:49;97433.50;;;12.69;97.51
54876;BME280;40764;48.472;8.166;2023-03-24T14:35:57;97473.03;;;12.59;98.89
54876;BME280;40764;48.472;8.166;2023-03-24T14:42:00;97481.47;;;12.37;100.00
54876;BME280;40764;48.472;8.166;2023-03-24T14:48:43;97475.81;;;12.42;100.00
54876;BME280;40764;48.472;8.166;2023-03-24T14:54:53;97475.19;;;12.28;100.00
54876;BME280;40764;48.472;8.166;2023-03-24T15:00:58;97474.88;;;12.21;100.00
54876;BME280;40764;48.472;8.166;2023-03-24T15:07:02;97473.06;;;12.51;100.00
54876;BME280;40764;48.472;8.166;2023-03-24T15:13:03;97468.47;;;13.27;98.90
54876;BME280;40764;48.472;8.166;2023-03-24T15:19:07;97473.16;;;13.56;95.09
54876;BME280;40764;48.472;8.166;2023-03-24T15:25:09;97474.59;;;13.33;95.51
54876;BME280;40764;48.472;8.166;2023-03-24T15:31:11;97467.66;;;13.27;96.80
54876;BME280;40764;48.472;8.166;2023-03-24T15:37:31;97465.28;;;13.17;97.83
54876;BME280;40764;48.472;8.166;2023-03-24T15:43:32;97460.03;;;13.03;94.21
54876;BME280;40764;48.472;8.166;2023-03-24T15:49:34;97450.78;;;12.61;98.33
54876;BME280;40764;48.472;8.166;2023-03-24T15:55:35;97451.94;;;12.51;98.40
54876;BME280;40764;48.472;8.166;2023-03-24T16:01:36;97467.25;;;12.52;96.20
54876;BME280;40764;48.472;8.166;2023-03-24T16:07:37;97454.34;;;12.61;96.34
54876;BME280;40764;48.472;8.166;2023-03-24T16:13:41;97431.50;;;12.87;95.71
54876;BME280;40764;48.472;8.166;2023-03-24T16:19:42;97464.97;;;12.63;94.71
54876;BME280;40764;48.472;8.166;2023-03-24T16:25:43;97453.66;;;12.73;93.37
54876;BME280;40764;48.472;8.166;2023-03-24T16:31:44;97449.28;;;12.72;93.00
54876;BME280;40764;48.472;8.166;2023-03-24T16:37:48;97435.88;;;13.26;91.08
54876;BME280;40764;48.472;8.166;2023-03-24T16:43:48;97438.31;;;14.19;85.82
54876;BME280;40764;48.472;8.166;2023-03-24T16:49:49;97422.63;;;13.78;86.97
54876;BME280;40764;48.472;8.166;2023-03-24T16:55:49;97426.50;;;13.77;85.45
54876;BME280;40764;48.472;8.166;2023-03-24T17:01:51;97436.75;;;13.09;88.73
54876;BME280;40764;48.472;8.166;2023-03-24T17:07:52;97441.38;;;12.79;87.40
54876;BME280;40764;48.472;8.166;2023-03-24T17:13:53;97433.09;;;12.50;87.71
54876;BME280;40764;48.472;8.166;2023-03-24T17:19:53;97448.91;;;12.09;88.96
54876;BME280;40764;48.472;8.166;2023-03-24T17:25:54;97453.59;;;11.92;89.47
54876;BME280;40764;48.472;8.166;2023-03-24T17:31:54;97464.66;;;11.69;90.25
54876;BME280;40764;48.472;8.166;2023-03-24T17:37:55;97485.44;;;11.62;90.57
54876;BME280;40764;48.472;8.166;2023-03-24T17:43:55;97477.63;;;11.38;91.64
54876;BME280;40764;48.472;8.166;2023-03-24T17:49:56;97475.00;;;11.15;92.50
54876;BME280;40764;48.472;8.166;2023-03-24T17:55:57;97485.72;;;11.03;92.96
54876;BME280;40764;48.472;8.166;2023-03-24T18:01:58;97495.00;;;10.94;92.53
54876;BME280;40764;48.472;8.166;2023-03-24T18:07:59;97532.88;;;11.09;92.19
54876;BME280;40764;48.472;8.166;2023-03-24T18:13:59;97548.47;;;11.39;90.61
54876;BME280;40764;48.472;8.166;2023-03-24T18:20:00;97542.41;;;11.11;93.77
54876;BME280;40764;48.472;8.166;2023-03-24T18:26:09;97536.78;;;10.85;95.56
54876;BME280;40764;48.472;8.166;2023-03-24T18:32:09;97542.34;;;10.72;96.17
54876;BME280;40764;48.472;8.166;2023-03-24T18:38:09;97538.91;;;10.66;96.53
54876;BME280;40764;48.472;8.166;2023-03-24T18:44:12;97543.94;;;10.50;96.60
54876;BME280;40764;48.472;8.166;2023-03-24T18:50:13;97540.94;;;10.38;97.69
54876;BME280;40764;48.472;8.166;2023-03-24T18:56:14;97543.69;;;10.38;97.53
54876;BME280;40764;48.472;8.166;2023-03-24T19:02:14;97555.53;;;10.34;97.44
54876;BME280;40764;48.472;8.166;2023-03-24T19:08:15;97574.84;;;10.37;96.18
54876;BME280;40764;48.472;8.166;2023-03-24T19:14:16;97561.50;;;10.36;95.06
54876;BME280;40764;48.472;8.166;2023-03-24T19:20:16;97557.78;;;10.32;94.50
54876;BME280;40764;48.472;8.166;2023-03-24T19:26:16;97560.13;;;10.24;94.53
54876;BME280;40764;48.472;8.166;2023-03-24T19:32:18;97548.41;;;10.10;94.42
54876;BME280;40764;48.472;8.166;2023-03-24T19:38:19;97555.69;;;10.15;93.17
54876;BME280;40764;48.472;8.166;2023-03-24T19:44:23;97544.97;;;10.18;92.51
54876;BME280;40764;48.472;8.166;2023-03-24T19:50:24;97544.06;;;10.09;92.14
54876;BME280;40764;48.472;8.166;2023-03-24T19:56:24;97544.41;;;9.94;92.59
54876;BME280;40764;48.472;8.166;2023-03-24T20:02:25;97543.59;;;9.93;92.30
54876;BME280;40764;48.472;8.166;2023-03-24T20:08:25;97550.63;;;10.08;90.13
54876;BME280;40764;48.472;8.166;2023-03-24T20:14:26;97559.75;;;10.04;89.70
54876;BME280;40764;48.472;8.166;2023-03-24T20:20:27;97573.22;;;10.00;89.43
54876;BME280;40764;48.472;8.166;2023-03-24T20:26:27;97575.31;;;10.03;89.39
54876;BME280;40764;48.472;8.166;2023-03-24T20:32:28;97583.00;;;10.15;88.45
54876;BME280;40764;48.472;8.166;2023-03-24T20:38:29;97602.09;;;10.29;88.25
54876;BME280;40764;48.472;8.166;2023-03-24T20:44:30;97630.84;;;10.26;89.08
54876;BME280;40764;48.472;8.166;2023-03-24T20:50:30;97633.34;;;10.36;88.97
54876;BME280;40764;48.472;8.166;2023-03-24T20:56:30;97649.53;;;10.46;89.34
54876;BME280;40764;48.472;8.166;2023-03-24T21:02:31;97614.66;;;10.16;92.48
54876;BME280;40764;48.472;8.166;2023-03-24T21:08:31;97620.97;;;9.89;96.81
54876;BME280;40764;48.472;8.166;2023-03-24T21:14:32;97601.25;;;9.78;97.72
54876;BME280;40764;48.472;8.166;2023-03-24T21:20:33;97606.69;;;9.78;98.51
54876;BME280;40764;48.472;8.166;2023-03-24T21:26:33;97614.06;;;9.78;99.46
54876;BME280;40764;48.472;8.166;2023-03-24T21:32:36;97615.09;;;9.82;96.65
54876;BME280;40764;48.472;8.166;2023-03-24T21:38:37;97615.38;;;10.08;93.96
54876;BME280;40764;48.472;8.166;2023-03-24T21:44:38;97618.63;;;9.96;93.04
54876;BME280;40764;48.472;8.166;2023-03-24T21:50:38;97617.69;;;10.14;90.70
54876;BME280;40764;48.472;8.166;2023-03-24T21:56:41;97648.25;;;10.16;91.17
54876;BME280;40764;48.472;8.166;2023-03-24T22:02:47;97670.91;;;10.03;94.41
54876;BME280;40764;48.472;8.166;2023-03-24T22:08:49;97646.84;;;9.91;91.79
54876;BME280;40764;48.472;8.166;2023-03-24T22:14:52;97641.50;;;9.86;92.80
54876;BME280;40764;48.472;8.166;2023-03-24T22:26:54;97661.91;;;9.75;96.52
54876;BME280;40764;48.472;8.166;2023-03-24T22:32:57;97663.13;;;9.69;96.54
54876;BME280;40764;48.472;8.166;2023-03-24T22:38:58;97673.22;;;9.82;96.97
54876;BME280;40764;48.472;8.166;2023-03-24T22:44:58;97653.31;;;9.82;96.14
54876;BME280;40764;48.472;8.166;2023-03-24T22:50:58;97652.50;;;9.81;96.32
54876;BME280;40764;48.472;8.166;2023-03-24T22:56:59;97647.25;;;9.85;95.79
54876;BME280;40764;48.472;8.166;2023-03-24T23:02:59;97676.56;;;9.93;95.00
54876;BME280;40764;48.472;8.166;2023-03-24T23:09:00;97734.38;;;9.81;97.70
54876;BME280;40764;48.472;8.166;2023-03-24T23:15:00;97734.31;;;9.40;97.62
54876;BME280;40764;48.472;8.166;2023-03-24T23:21:12;97730.47;;;9.41;97.61
54876;BME280;40764;48.472;8.166;2023-03-24T23:27:14;97741.38;;;9.41;96.48
54876;BME280;40764;48.472;8.166;2023-03-24T23:33:15;97734.19;;;9.31;95.01
54876;BME280;40764;48.472;8.166;2023-03-24T23:39:15;97749.69;;;9.50;91.82
54876;BME280;40764;48.472;8.166;2023-03-24T23:45:18;97742.41;;;9.45;92.55
54876;BME280;40764;48.472;8.166;2023-03-24T23:51:19;97754.59;;;9.34;93.32
54876;BME280;40764;48.472;8.166;2023-03-24T23:57:19;97774.88;;;9.28;94.30
